Newville, Indiana
Current Conditions -  °F | °C
As of 6:15 PM on Monday 22 Dec 2014 (Local Time) from KGWB Reporting Station
Broken Clouds Broken Clouds  
Wind Chill: 29°   Ceiling: 6500
Heat Index: 36°   Visibility: 7mi
Dew Point: 32°   Wind: 9mph
Humidity: 87%   Direction: 100°E
Pressure: 29.83"   Gusts: NA
Location:  41.4294°N, 84.8751°W
Report Text: KGWB 222315Z AUTO 10008KT 7SM BKN065 02/00 A2983 RMK AO2
Loading
Personal Weather Stations






























Interactive Weather Map New forecast layout! Learn more

10-Day Weather Forecast

Advertisements
Track Severe Weather on mobile